createdAt,value
2023-03-16T00:00:28.082Z,1016.04
2023-03-16T00:01:27.632Z,1016.07
2023-03-16T00:02:27.974Z,1016.06
2023-03-16T00:03:27.700Z,1016.05
2023-03-16T00:04:48.378Z,1016.10
2023-03-16T00:05:27.738Z,1016.08
2023-03-16T00:06:27.517Z,1016.05
2023-03-16T00:07:27.734Z,1016.06
2023-03-16T00:08:27.515Z,1016.02
2023-03-16T00:09:27.742Z,1016.01
2023-03-16T00:10:27.940Z,1015.97
2023-03-16T00:11:27.757Z,1015.96
2023-03-16T00:12:27.512Z,1015.92
2023-03-16T00:13:27.773Z,1015.91
2023-03-16T00:14:49.072Z,1015.89
2023-03-16T00:15:27.341Z,1015.90
2023-03-16T00:16:27.653Z,1015.89
2023-03-16T00:17:27.358Z,1015.80
2023-03-16T00:18:27.631Z,1015.85
2023-03-16T00:19:27.344Z,1015.90
2023-03-16T00:20:27.891Z,1015.92
2023-03-16T00:21:27.363Z,1015.87
2023-03-16T00:22:27.638Z,1015.85
2023-03-16T00:23:27.608Z,1015.77
2023-03-16T00:24:48.787Z,1015.80
2023-03-16T00:25:27.591Z,1015.79
2023-03-16T00:26:27.325Z,1015.83
2023-03-16T00:27:27.577Z,1015.83
2023-03-16T00:28:27.336Z,1015.82
2023-03-16T00:29:27.590Z,1015.83
2023-03-16T00:30:27.496Z,1015.78
2023-03-16T00:31:27.124Z,1015.75
2023-03-16T00:32:27.400Z,1015.74
2023-03-16T00:33:27.111Z,1015.71
2023-03-16T00:34:47.874Z,1015.67
2023-03-16T00:35:27.181Z,1015.64
2023-03-16T00:36:27.451Z,1015.66
2023-03-16T00:37:27.263Z,1015.68
2023-03-16T00:38:27.470Z,1015.67
2023-03-16T00:39:27.211Z,1015.68
2023-03-16T00:40:27.643Z,1015.68
2023-03-16T00:41:27.237Z,1015.71
2023-03-16T00:42:27.551Z,1015.68
2023-03-16T00:43:27.264Z,1015.64
2023-03-16T00:44:47.554Z,1015.62
2023-03-16T00:45:27.265Z,1015.62
2023-03-16T00:46:27.039Z,1015.60
2023-03-16T00:47:27.289Z,1015.60
2023-03-16T00:48:27.012Z,1015.59
2023-03-16T00:49:27.262Z,1015.61
2023-03-16T00:50:27.191Z,1015.57
2023-03-16T00:51:27.269Z,1015.58
2023-03-16T00:52:27.192Z,1015.56
2023-03-16T00:53:28.362Z,1015.58
2023-03-16T00:54:47.223Z,1015.56
2023-03-16T00:55:28.729Z,1015.54
2023-03-16T00:56:28.513Z,1015.53
2023-03-16T00:57:27.905Z,1015.55
2023-03-16T00:58:27.913Z,1015.53
2023-03-16T00:59:28.573Z,1015.49
2023-03-16T01:00:28.911Z,1015.48
2023-03-16T01:01:28.669Z,1015.49
2023-03-16T01:02:28.616Z,1015.44
2023-03-16T01:03:28.435Z,1015.42
2023-03-16T01:04:47.194Z,1015.41
2023-03-16T01:05:27.908Z,1015.40
2023-03-16T01:06:28.780Z,1015.38
2023-03-16T01:07:28.571Z,1015.36
2023-03-16T01:08:28.381Z,1015.34
2023-03-16T01:09:28.679Z,1015.33
2023-03-16T01:10:27.548Z,1015.36
2023-03-16T01:11:28.392Z,1015.27
2023-03-16T01:12:27.412Z,1015.30
2023-03-16T01:13:28.474Z,1015.25
2023-03-16T01:14:46.814Z,1015.26
2023-03-16T01:15:28.521Z,1015.19
2023-03-16T01:16:28.342Z,1015.22
2023-03-16T01:17:28.558Z,1015.25
2023-03-16T01:18:27.958Z,1015.25
2023-03-16T01:19:28.231Z,1015.26
2023-03-16T01:20:27.595Z,1015.30
2023-03-16T01:21:28.369Z,1015.27
2023-03-16T01:22:28.160Z,1015.25
2023-03-16T01:23:28.461Z,1015.26
2023-03-16T01:24:46.808Z,1015.22
2023-03-16T01:25:28.016Z,1015.15
2023-03-16T01:26:27.003Z,1015.14
2023-03-16T01:27:28.181Z,1015.12
2023-03-16T01:28:28.451Z,1015.05
2023-03-16T01:29:28.266Z,1015.07
2023-03-16T01:30:28.348Z,1015.03
2023-03-16T01:31:27.402Z,1015.00
2023-03-16T01:32:28.139Z,1015.07
2023-03-16T01:33:28.443Z,1015.07
2023-03-16T01:34:46.761Z,1015.03
2023-03-16T01:35:28.032Z,1015.04
2023-03-16T01:36:28.314Z,1014.98
2023-03-16T01:37:27.404Z,1014.98
2023-03-16T01:38:26.958Z,1015.00
2023-03-16T01:39:28.165Z,1014.99
2023-03-16T01:40:27.391Z,1014.93
2023-03-16T01:41:28.211Z,1014.93
2023-03-16T01:42:26.781Z,1014.86
2023-03-16T01:43:27.398Z,1014.84
2023-03-16T01:44:46.845Z,1014.89
2023-03-16T01:45:28.076Z,1014.80
2023-03-16T01:46:27.890Z,1014.84
2023-03-16T01:47:28.146Z,1014.84
2023-03-16T01:48:27.932Z,1014.85
2023-03-16T01:49:27.400Z,1014.83
2023-03-16T01:50:26.814Z,1014.83
2023-03-16T01:51:26.780Z,1014.84
2023-03-16T01:52:26.521Z,1014.84
2023-03-16T01:53:26.887Z,1014.85
2023-03-16T01:54:47.252Z,1014.86
2023-03-16T01:55:26.374Z,1014.88
2023-03-16T01:56:26.618Z,1014.86
2023-03-16T01:57:26.412Z,1014.87
2023-03-16T01:58:26.653Z,1014.87
2023-03-16T01:59:26.415Z,1014.88
2023-03-16T02:00:27.005Z,1014.88
2023-03-16T02:01:26.448Z,1014.84
2023-03-16T02:02:26.641Z,1014.85
2023-03-16T02:03:26.405Z,1014.86
2023-03-16T02:04:47.895Z,1014.82
2023-03-16T02:05:28.555Z,1014.84
2023-03-16T02:06:26.268Z,1014.85
2023-03-16T02:07:26.535Z,1014.82
2023-03-16T02:08:27.628Z,1014.84
2023-03-16T02:09:27.038Z,1014.82
2023-03-16T02:10:26.737Z,1014.79
2023-03-16T02:11:26.162Z,1014.85
2023-03-16T02:12:26.402Z,1014.81
2023-03-16T02:13:26.163Z,1014.85
2023-03-16T02:14:47.900Z,1014.82
2023-03-16T02:15:26.223Z,1014.81
2023-03-16T02:16:26.460Z,1014.86
2023-03-16T02:17:26.210Z,1014.82
2023-03-16T02:18:26.440Z,1014.88
2023-03-16T02:19:26.209Z,1014.79
2023-03-16T02:20:26.761Z,1014.79
2023-03-16T02:21:26.201Z,1014.79
2023-03-16T02:22:26.446Z,1014.72
2023-03-16T02:23:26.196Z,1014.71
2023-03-16T02:24:46.942Z,1014.69
2023-03-16T02:25:26.269Z,1014.70
2023-03-16T02:26:26.031Z,1014.65
2023-03-16T02:27:26.343Z,1014.67
2023-03-16T02:28:26.066Z,1014.65
2023-03-16T02:29:26.323Z,1014.64
2023-03-16T02:30:26.464Z,1014.67
2023-03-16T02:31:26.359Z,1014.71
2023-03-16T02:32:26.111Z,1014.72
2023-03-16T02:33:26.341Z,1014.68
2023-03-16T02:34:47.650Z,1014.72
2023-03-16T02:35:26.032Z,1014.71
2023-03-16T02:36:26.192Z,1014.69
2023-03-16T02:37:25.957Z,1014.67
2023-03-16T02:38:26.184Z,1014.65
2023-03-16T02:39:25.951Z,1014.64
2023-03-16T02:40:26.545Z,1014.63
2023-03-16T02:41:25.957Z,1014.64
2023-03-16T02:42:26.203Z,1014.66
2023-03-16T02:43:25.962Z,1014.62
2023-03-16T02:44:47.694Z,1014.61
2023-03-16T02:45:26.005Z,1014.58
2023-03-16T02:46:26.349Z,1014.58
2023-03-16T02:47:26.025Z,1014.58
2023-03-16T02:48:25.767Z,1014.56
2023-03-16T02:49:26.023Z,1014.54
2023-03-16T02:50:26.103Z,1014.54
2023-03-16T02:51:26.034Z,1014.55
2023-03-16T02:52:25.782Z,1014.54
2023-03-16T02:53:26.044Z,1014.54
2023-03-16T02:54:47.287Z,1014.53
2023-03-16T02:55:26.089Z,1014.54
2023-03-16T02:56:25.826Z,1014.57
2023-03-16T02:57:26.097Z,1014.54
2023-03-16T02:58:25.842Z,1014.60
2023-03-16T02:59:26.076Z,1014.57
2023-03-16T03:00:26.129Z,1014.50
2023-03-16T03:01:26.124Z,1014.56
2023-03-16T03:02:25.867Z,1014.48
2023-03-16T03:03:26.140Z,1014.50
2023-03-16T03:04:47.336Z,1014.43
2023-03-16T03:05:25.650Z,1014.35
2023-03-16T03:06:25.899Z,1014.36
2023-03-16T03:07:25.653Z,1014.37
2023-03-16T03:08:25.898Z,1014.42
2023-03-16T03:09:25.667Z,1014.40
2023-03-16T03:10:26.199Z,1014.37
2023-03-16T03:11:25.658Z,1014.32
2023-03-16T03:12:25.922Z,1014.34
2023-03-16T03:13:25.654Z,1014.36
2023-03-16T03:14:46.465Z,1014.33
2023-03-16T03:15:25.758Z,1014.35
2023-03-16T03:16:25.555Z,1014.35
2023-03-16T03:17:25.775Z,1014.34
2023-03-16T03:18:25.543Z,1014.36
2023-03-16T03:19:25.836Z,1014.30
2023-03-16T03:20:25.646Z,1014.34
2023-03-16T03:21:25.829Z,1014.31
2023-03-16T03:22:25.632Z,1014.31
2023-03-16T03:23:25.898Z,1014.30
2023-03-16T03:24:45.707Z,1014.32
2023-03-16T03:25:25.488Z,1014.28
2023-03-16T03:26:25.731Z,1014.31
2023-03-16T03:27:25.554Z,1014.31
2023-03-16T03:28:25.805Z,1014.33
2023-03-16T03:29:25.548Z,1014.27
2023-03-16T03:30:26.272Z,1014.30
2023-03-16T03:31:25.653Z,1014.27
2023-03-16T03:32:25.873Z,1014.31
2023-03-16T03:33:25.670Z,1014.32
2023-03-16T03:34:45.498Z,1014.29
2023-03-16T03:35:25.826Z,1014.26
2023-03-16T03:36:25.561Z,1014.31
2023-03-16T03:37:25.343Z,1014.27
2023-03-16T03:38:25.600Z,1014.28
2023-03-16T03:39:25.395Z,1014.27
2023-03-16T03:40:26.055Z,1014.30
2023-03-16T03:41:25.440Z,1014.30
2023-03-16T03:42:25.782Z,1014.35
2023-03-16T03:43:25.514Z,1014.31
2023-03-16T03:44:45.977Z,1014.31
2023-03-16T03:45:25.237Z,1014.25
2023-03-16T03:46:25.640Z,1014.27
2023-03-16T03:47:25.338Z,1014.30
2023-03-16T03:48:25.670Z,1014.27
2023-03-16T03:49:25.455Z,1014.30
2023-03-16T03:50:25.376Z,1014.28
2023-03-16T03:51:25.493Z,1014.30
2023-03-16T03:52:25.273Z,1014.27
2023-03-16T03:53:25.589Z,1014.22
2023-03-16T03:54:46.372Z,1014.22
2023-03-16T03:55:25.231Z,1014.25
2023-03-16T03:56:25.480Z,1014.29
2023-03-16T03:57:25.237Z,1014.24
2023-03-16T03:58:25.501Z,1014.23
2023-03-16T03:59:25.299Z,1014.11
2023-03-16T04:00:25.822Z,1014.16
2023-03-16T04:01:25.309Z,1014.17
2023-03-16T04:02:25.296Z,1014.10
2023-03-16T04:03:25.372Z,1014.14
2023-03-16T04:04:46.560Z,1014.10
2023-03-16T04:05:25.370Z,1014.07
2023-03-16T04:06:25.111Z,1014.09
2023-03-16T04:07:25.366Z,1014.09
2023-03-16T04:08:25.104Z,1014.13
2023-03-16T04:09:25.358Z,1014.06
2023-03-16T04:10:25.214Z,1014.10
2023-03-16T04:11:25.385Z,1014.07
2023-03-16T04:12:25.129Z,1014.04
2023-03-16T04:13:25.392Z,1014.03
2023-03-16T04:14:46.014Z,1014.01
2023-03-16T04:15:24.934Z,1014.04
2023-03-16T04:16:25.170Z,1014.02
2023-03-16T04:17:24.936Z,1014.03
2023-03-16T04:18:25.161Z,1014.04
2023-03-16T04:19:24.936Z,1014.02
2023-03-16T04:20:25.568Z,1013.99
2023-03-16T04:21:24.970Z,1013.97
2023-03-16T04:22:25.226Z,1013.98
2023-03-16T04:23:25.972Z,1014.02
2023-03-16T04:24:45.278Z,1013.99
2023-03-16T04:25:24.971Z,1013.93
2023-03-16T04:26:25.226Z,1013.98
2023-03-16T04:27:24.972Z,1013.94
2023-03-16T04:28:25.232Z,1013.94
2023-03-16T04:29:24.990Z,1013.94
2023-03-16T04:30:25.265Z,1013.92
2023-03-16T04:31:25.030Z,1013.89
2023-03-16T04:32:25.253Z,1013.92
2023-03-16T04:33:25.004Z,1013.92
2023-03-16T04:34:44.756Z,1013.94
2023-03-16T04:35:25.026Z,1013.96
2023-03-16T04:36:24.770Z,1013.94
2023-03-16T04:37:25.043Z,1013.90
2023-03-16T04:38:24.788Z,1013.87
2023-03-16T04:39:25.038Z,1013.88
2023-03-16T04:40:24.777Z,1013.88
2023-03-16T04:41:25.039Z,1013.89
2023-03-16T04:42:26.256Z,1013.91
2023-03-16T04:43:25.510Z,1013.91
2023-03-16T04:44:45.589Z,1013.88
2023-03-16T04:45:24.745Z,1013.90
2023-03-16T04:46:25.031Z,1013.86
2023-03-16T04:47:24.778Z,1013.85
2023-03-16T04:48:25.013Z,1013.82
2023-03-16T04:49:24.791Z,1013.86
2023-03-16T04:50:25.052Z,1013.86
2023-03-16T04:51:24.788Z,1013.86
2023-03-16T04:52:24.550Z,1013.88
2023-03-16T04:53:24.799Z,1013.85
2023-03-16T04:54:45.522Z,1013.84
2023-03-16T04:55:24.985Z,1013.86
2023-03-16T04:56:24.725Z,1013.85
2023-03-16T04:57:24.982Z,1013.79
2023-03-16T04:58:24.708Z,1013.81
2023-03-16T04:59:24.471Z,1013.83
2023-03-16T05:00:24.733Z,1013.82
2023-03-16T05:01:24.525Z,1013.79
2023-03-16T05:02:24.763Z,1013.83
2023-03-16T05:03:24.520Z,1013.79
2023-03-16T05:04:46.268Z,1013.79
2023-03-16T05:05:24.676Z,1013.82
2023-03-16T05:06:24.887Z,1013.79
2023-03-16T05:07:24.652Z,1013.81
2023-03-16T05:08:24.392Z,1013.76
2023-03-16T05:09:24.655Z,1013.73
2023-03-16T05:10:24.418Z,1013.71
2023-03-16T05:11:24.649Z,1013.69
2023-03-16T05:12:24.409Z,1013.63
2023-03-16T05:13:24.671Z,1013.65
2023-03-16T05:14:46.026Z,1013.64
2023-03-16T05:15:24.302Z,1013.62
2023-03-16T05:16:24.583Z,1013.62
2023-03-16T05:17:24.314Z,1013.60
2023-03-16T05:18:24.575Z,1013.60
2023-03-16T05:19:24.344Z,1013.62
2023-03-16T05:20:24.594Z,1013.64
2023-03-16T05:21:24.367Z,1013.62
2023-03-16T05:22:24.632Z,1013.64
2023-03-16T05:23:24.376Z,1013.62
2023-03-16T05:24:45.034Z,1013.61
2023-03-16T05:25:24.473Z,1013.61
2023-03-16T05:26:24.248Z,1013.57
2023-03-16T05:27:24.495Z,1013.59
2023-03-16T05:28:24.274Z,1013.66
2023-03-16T05:29:24.536Z,1013.61
2023-03-16T05:30:24.301Z,1013.54
2023-03-16T05:31:24.626Z,1013.53
2023-03-16T05:32:24.360Z,1013.56
2023-03-16T05:33:24.570Z,1013.61
2023-03-16T05:34:45.822Z,1013.58
2023-03-16T05:35:24.382Z,1013.58
2023-03-16T05:36:24.396Z,1013.53
2023-03-16T05:37:24.143Z,1013.55
2023-03-16T05:38:24.390Z,1013.51
2023-03-16T05:39:24.137Z,1013.54
2023-03-16T05:40:24.428Z,1013.50
2023-03-16T05:41:24.177Z,1013.53
2023-03-16T05:42:24.440Z,1013.51
2023-03-16T05:43:24.173Z,1013.50
2023-03-16T05:44:44.488Z,1013.48
2023-03-16T05:45:24.303Z,1013.51
2023-03-16T05:46:24.171Z,1013.45
2023-03-16T05:47:24.264Z,1013.49
2023-03-16T05:48:24.047Z,1013.50
2023-03-16T05:49:24.288Z,1013.47
2023-03-16T05:50:24.044Z,1013.42
2023-03-16T05:51:24.288Z,1013.46
2023-03-16T05:52:24.049Z,1013.40
2023-03-16T05:53:24.297Z,1013.40
2023-03-16T05:54:44.084Z,1013.38
2023-03-16T05:55:24.322Z,1013.35
2023-03-16T05:56:24.074Z,1013.35
2023-03-16T05:57:24.316Z,1013.38
2023-03-16T05:58:24.092Z,1013.31
2023-03-16T05:59:24.330Z,1013.35
2023-03-16T06:00:24.087Z,1013.34
2023-03-16T06:01:24.350Z,1013.36
2023-03-16T06:02:24.126Z,1013.38
2023-03-16T06:03:23.873Z,1013.36
2023-03-16T06:04:44.138Z,1013.37
2023-03-16T06:05:23.851Z,1013.41
2023-03-16T06:06:24.116Z,1013.40
2023-03-16T06:07:23.865Z,1013.43
2023-03-16T06:08:24.140Z,1013.40
2023-03-16T06:09:23.879Z,1013.40
2023-03-16T06:10:24.166Z,1013.40
2023-03-16T06:11:23.880Z,1013.40
2023-03-16T06:12:24.146Z,1013.38
2023-03-16T06:13:23.904Z,1013.38
2023-03-16T06:14:44.217Z,1013.41
2023-03-16T06:15:25.425Z,1013.39
2023-03-16T06:16:24.669Z,1013.45
2023-03-16T06:17:25.563Z,1013.40
2023-03-16T06:18:25.068Z,1013.46
2023-03-16T06:19:25.288Z,1013.45
2023-03-16T06:20:25.125Z,1013.41
2023-03-16T06:21:25.452Z,1013.40
2023-03-16T06:22:24.784Z,1013.38
2023-03-16T06:23:25.544Z,1013.42
2023-03-16T06:24:43.893Z,1013.35
2023-03-16T06:25:25.086Z,1013.32
2023-03-16T06:26:24.902Z,1013.36
2023-03-16T06:27:24.565Z,1013.42
2023-03-16T06:28:24.595Z,1013.39
2023-03-16T06:29:25.421Z,1013.36
2023-03-16T06:30:25.247Z,1013.32
2023-03-16T06:31:25.012Z,1013.29
2023-03-16T06:32:25.310Z,1013.23
2023-03-16T06:33:25.098Z,1013.25
2023-03-16T06:34:43.974Z,1013.24
2023-03-16T06:35:24.696Z,1013.25
2023-03-16T06:36:24.507Z,1013.20
2023-03-16T06:37:24.469Z,1013.18
2023-03-16T06:38:24.500Z,1013.16
2023-03-16T06:39:24.490Z,1013.19
2023-03-16T06:40:25.121Z,1013.17
2023-03-16T06:41:25.391Z,1013.21
2023-03-16T06:42:25.211Z,1013.22
2023-03-16T06:43:25.096Z,1013.24
2023-03-16T06:44:43.980Z,1013.26
2023-03-16T06:45:24.082Z,1013.23
2023-03-16T06:46:25.059Z,1013.28
2023-03-16T06:47:25.323Z,1013.22
2023-03-16T06:48:25.122Z,1013.21
2023-03-16T06:49:24.959Z,1013.21
2023-03-16T06:50:24.886Z,1013.20
2023-03-16T06:51:24.091Z,1013.16
2023-03-16T06:52:24.089Z,1013.19
2023-03-16T06:53:24.869Z,1013.26
2023-03-16T06:54:43.595Z,1013.25
2023-03-16T06:55:23.330Z,1013.24
2023-03-16T06:56:23.603Z,1013.25
2023-03-16T06:57:23.321Z,1013.29
2023-03-16T06:58:23.729Z,1013.26
2023-03-16T06:59:23.348Z,1013.22
2023-03-16T07:00:23.607Z,1013.21
2023-03-16T07:01:23.438Z,1013.18
2023-03-16T07:02:23.650Z,1013.24
2023-03-16T07:03:23.371Z,1013.24
2023-03-16T07:04:45.141Z,1013.23
2023-03-16T07:05:23.371Z,1013.13
2023-03-16T07:06:22.738Z,1013.16
2023-03-16T07:07:22.713Z,1013.28
2023-03-16T07:08:22.714Z,1013.20
2023-03-16T07:09:22.700Z,1013.14
2023-03-16T07:10:22.741Z,1013.14
2023-03-16T07:11:22.663Z,1013.16
2023-03-16T07:12:22.666Z,1013.18
2023-03-16T07:13:22.662Z,1013.14
2023-03-16T07:14:44.383Z,1013.19
2023-03-16T07:15:22.604Z,1013.15
2023-03-16T07:16:22.657Z,1013.12
2023-03-16T07:17:22.601Z,1013.16
2023-03-16T07:18:22.622Z,1013.12
2023-03-16T07:19:22.598Z,1013.11
2023-03-16T07:20:23.748Z,1013.05
2023-03-16T07:21:23.371Z,1013.01
2023-03-16T07:22:23.131Z,1013.05
2023-03-16T07:23:23.375Z,1013.05
2023-03-16T07:24:44.643Z,1013.05
2023-03-16T07:25:23.442Z,1013.08
2023-03-16T07:26:23.173Z,1013.12
2023-03-16T07:27:23.450Z,1013.09
2023-03-16T07:28:23.219Z,1013.10
2023-03-16T07:29:23.450Z,1013.05
2023-03-16T07:30:23.185Z,1013.00
2023-03-16T07:31:23.479Z,1013.03
2023-03-16T07:32:23.324Z,1013.08
2023-03-16T07:33:22.980Z,1013.14
2023-03-16T07:34:43.946Z,1013.07
2023-03-16T07:35:23.256Z,1013.06
2023-03-16T07:36:23.011Z,1013.12
2023-03-16T07:37:25.561Z,1013.16
2023-03-16T07:38:23.009Z,1013.11
2023-03-16T07:39:23.259Z,1013.11
2023-03-16T07:40:23.017Z,1013.13
2023-03-16T07:41:23.284Z,1013.14
2023-03-16T07:42:23.051Z,1013.09
2023-03-16T07:43:23.290Z,1013.07
2023-03-16T07:44:43.642Z,1013.10
2023-03-16T07:45:22.931Z,1013.11
2023-03-16T07:46:23.276Z,1013.13
2023-03-16T07:47:26.249Z,1013.12
2023-03-16T07:48:23.180Z,1013.09
2023-03-16T07:49:22.904Z,1013.08
2023-03-16T07:50:23.177Z,1013.08
2023-03-16T07:51:22.895Z,1013.13
2023-03-16T07:52:23.165Z,1013.16
2023-03-16T07:53:23.901Z,1013.12
2023-03-16T07:54:44.671Z,1013.18
2023-03-16T07:55:22.999Z,1013.17
2023-03-16T07:56:22.742Z,1013.07
2023-03-16T07:57:22.231Z,1013.13
2023-03-16T07:58:22.198Z,1013.13
2023-03-16T07:59:22.196Z,1013.17
2023-03-16T08:00:22.189Z,1013.17
2023-03-16T08:01:23.000Z,1013.18
2023-03-16T08:02:22.752Z,1013.12
2023-03-16T08:03:23.100Z,1013.13
2023-03-16T08:04:44.213Z,1013.11
2023-03-16T08:05:22.981Z,1013.22
2023-03-16T08:06:22.756Z,1013.11
2023-03-16T08:07:23.008Z,1013.11
2023-03-16T08:08:22.760Z,1013.09
2023-03-16T08:09:22.999Z,1013.11
2023-03-16T08:10:22.764Z,1013.11
2023-03-16T08:11:22.984Z,1013.16
2023-03-16T08:12:25.313Z,1013.11
2023-03-16T08:13:23.007Z,1013.12
2023-03-16T08:14:44.327Z,1013.15
2023-03-16T08:15:22.638Z,1013.12
2023-03-16T08:16:22.983Z,1013.19
2023-03-16T08:17:22.640Z,1013.16
2023-03-16T08:18:22.896Z,1013.15
2023-03-16T08:19:22.654Z,1013.14
2023-03-16T08:20:23.016Z,1013.19
2023-03-16T08:21:22.659Z,1013.16
2023-03-16T08:22:22.965Z,1013.23
2023-03-16T08:23:22.715Z,1013.20
2023-03-16T08:24:43.655Z,1013.19
2023-03-16T08:25:22.804Z,1013.17
2023-03-16T08:26:22.589Z,1013.12
2023-03-16T08:27:22.827Z,1013.13
2023-03-16T08:28:22.624Z,1013.14
2023-03-16T08:29:22.847Z,1013.12
2023-03-16T08:30:22.602Z,1013.17
2023-03-16T08:31:22.407Z,1013.19
2023-03-16T08:32:23.677Z,1013.21
2023-03-16T08:33:23.387Z,1013.22
2023-03-16T08:34:44.159Z,1013.25
2023-03-16T08:35:22.431Z,1013.21
2023-03-16T08:36:22.711Z,1013.20
2023-03-16T08:37:22.434Z,1013.14
2023-03-16T08:38:22.720Z,1013.16
2023-03-16T08:39:22.435Z,1013.07
2023-03-16T08:40:22.756Z,1013.06
2023-03-16T08:41:22.479Z,1013.06
2023-03-16T08:42:22.747Z,1013.04
2023-03-16T08:43:22.490Z,1013.04
2023-03-16T08:44:44.280Z,1013.08
2023-03-16T08:45:22.548Z,1013.09
2023-03-16T08:46:22.356Z,1013.06
2023-03-16T08:47:22.546Z,1013.06
2023-03-16T08:48:22.285Z,1013.10
2023-03-16T08:49:22.528Z,1013.14
2023-03-16T08:50:22.309Z,1013.07
2023-03-16T08:51:22.566Z,1013.10
2023-03-16T08:52:23.035Z,1013.07
2023-03-16T08:53:21.646Z,1013.06
2023-03-16T08:54:55.994Z,1013.05
2023-03-16T08:55:22.603Z,1013.07
2023-03-16T08:56:22.402Z,1013.06
2023-03-16T08:57:22.128Z,1013.03
2023-03-16T08:58:22.398Z,1013.00
2023-03-16T08:59:29.706Z,1012.99
2023-03-16T09:00:23.435Z,1012.99
2023-03-16T09:01:22.218Z,1012.97
2023-03-16T09:02:22.450Z,1012.96
2023-03-16T09:03:22.130Z,1013.00
2023-03-16T09:04:43.935Z,1013.00
2023-03-16T09:05:22.177Z,1012.94
2023-03-16T09:06:22.485Z,1012.91
2023-03-16T09:07:22.179Z,1012.97
2023-03-16T09:08:22.452Z,1012.93
2023-03-16T09:09:22.184Z,1012.90
2023-03-16T09:10:22.469Z,1012.85
2023-03-16T09:11:22.233Z,1012.82
2023-03-16T09:12:21.956Z,1012.86
2023-03-16T09:13:22.185Z,1012.89
2023-03-16T09:14:42.484Z,1012.87
2023-03-16T09:15:22.229Z,1012.85
2023-03-16T09:16:22.033Z,1012.84
2023-03-16T09:17:22.244Z,1012.82
2023-03-16T09:18:21.982Z,1012.81
2023-03-16T09:19:24.197Z,1012.77
2023-03-16T09:20:34.845Z,1012.71
2023-03-16T09:21:23.273Z,1012.75
2023-03-16T09:22:22.030Z,1012.74
2023-03-16T09:23:22.429Z,1012.72
2023-03-16T09:24:42.075Z,1012.78
2023-03-16T09:25:22.301Z,1012.77
2023-03-16T09:26:22.035Z,1012.73
2023-03-16T09:27:22.385Z,1012.77
2023-03-16T09:28:22.296Z,1012.71
2023-03-16T09:29:21.820Z,1012.86
2023-03-16T09:30:22.078Z,1012.87
2023-03-16T09:31:21.874Z,1012.87
2023-03-16T09:32:21.272Z,1012.74
2023-03-16T09:33:22.048Z,1012.74
2023-03-16T09:34:42.786Z,1012.78
2023-03-16T09:35:22.043Z,1012.73
2023-03-16T09:36:21.804Z,1012.71
2023-03-16T09:37:22.044Z,1012.73
2023-03-16T09:38:21.789Z,1012.73
2023-03-16T09:39:22.054Z,1012.71
2023-03-16T09:40:21.788Z,1012.73
2023-03-16T09:41:22.541Z,1012.80
2023-03-16T09:42:21.804Z,1012.72
2023-03-16T09:43:22.077Z,1012.65
2023-03-16T09:44:41.852Z,1012.62
2023-03-16T09:45:22.065Z,1012.66
2023-03-16T09:46:21.900Z,1012.69
2023-03-16T09:47:22.074Z,1012.67
2023-03-16T09:48:21.060Z,1012.64
2023-03-16T09:49:21.111Z,1012.68
2023-03-16T09:50:21.840Z,1012.67
2023-03-16T09:51:21.637Z,1012.48
2023-03-16T09:52:21.847Z,1012.57
2023-03-16T09:54:13.112Z,1012.68
2023-03-16T09:54:41.066Z,1012.44
2023-03-16T09:55:21.815Z,1012.42
2023-03-16T09:56:49.681Z,1012.60
2023-03-16T09:57:21.893Z,1012.45
2023-03-16T09:58:21.629Z,1012.52
2023-03-16T09:59:21.886Z,1012.40
2023-03-16T10:00:29.887Z,1012.55
2023-03-16T10:01:24.441Z,1012.50
2023-03-16T10:02:21.627Z,1012.36
2023-03-16T10:03:21.930Z,1012.42
2023-03-16T10:04:41.685Z,1012.30
2023-03-16T10:05:21.898Z,1012.35
2023-03-16T10:06:21.649Z,1012.26
2023-03-16T10:07:21.411Z,1012.35
2023-03-16T10:10:12.148Z,1012.31
2023-03-16T10:10:16.948Z,1012.29
2023-03-16T10:11:17.697Z,1012.20
2023-03-16T10:12:17.449Z,1012.22
2023-03-16T10:13:20.690Z,1012.24
2023-03-16T10:14:17.553Z,1012.17
2023-03-16T10:15:39.227Z,1012.17
2023-03-16T10:16:17.512Z,1012.14
2023-03-16T10:17:17.777Z,1012.22
2023-03-16T10:18:17.534Z,1012.13
2023-03-16T10:19:17.764Z,1012.13
2023-03-16T10:20:17.574Z,1012.06
2023-03-16T10:21:17.771Z,1012.04
2023-03-16T10:22:17.534Z,1012.06
2023-03-16T10:23:17.780Z,1012.08
2023-03-16T10:24:17.551Z,1012.01
2023-03-16T10:25:37.819Z,1012.10
2023-03-16T10:26:17.575Z,1012.08
2023-03-16T10:27:17.355Z,1011.99
2023-03-16T10:28:17.634Z,1012.00
2023-03-16T10:29:17.401Z,1012.04
2023-03-16T10:30:17.675Z,1012.07
2023-03-16T10:31:17.423Z,1012.06
2023-03-16T10:32:17.677Z,1012.15
2023-03-16T10:33:17.466Z,1012.05
2023-03-16T10:34:17.712Z,1012.04
2023-03-16T10:35:37.450Z,1011.95
2023-03-16T10:36:17.232Z,1012.01
2023-03-16T10:37:17.443Z,1011.97
2023-03-16T10:38:18.099Z,1011.97
2023-03-16T10:39:17.486Z,1011.94
2023-03-16T10:40:17.251Z,1011.95
2023-03-16T10:41:17.496Z,1011.93
2023-03-16T10:42:17.256Z,1011.89
2023-03-16T10:43:17.527Z,1011.88
2023-03-16T10:44:17.268Z,1012.02
2023-03-16T10:45:38.292Z,1011.86
2023-03-16T10:46:17.536Z,1011.99
2023-03-16T10:47:17.564Z,1011.86
2023-03-16T10:48:17.327Z,1011.82
2023-03-16T10:49:17.102Z,1011.86
2023-03-16T10:50:17.361Z,1012.00
2023-03-16T10:51:17.102Z,1011.83
2023-03-16T10:52:17.361Z,1011.80
2023-03-16T10:53:17.107Z,1011.76
2023-03-16T11:01:43.907Z,1011.95
2023-03-16T11:02:09.989Z,1011.74
2023-03-16T11:04:08.047Z,1011.70
2023-03-16T11:04:13.839Z,1011.68
2023-03-16T11:05:13.613Z,1011.70
2023-03-16T11:06:13.352Z,1011.59
2023-03-16T11:07:13.641Z,1011.63
2023-03-16T11:08:13.394Z,1011.55
2023-03-16T11:09:13.670Z,1011.60
2023-03-16T11:10:13.416Z,1011.59
2023-03-16T11:11:13.669Z,1011.51
2023-03-16T11:12:33.433Z,1011.63
2023-03-16T11:21:26.196Z,1011.65
2023-03-16T11:21:30.968Z,1011.49
2023-03-16T11:22:31.722Z,1011.27
2023-03-16T11:24:40.498Z,1011.38
2023-03-16T11:25:04.814Z,1011.34
2023-03-16T11:25:46.116Z,1011.26
2023-03-16T11:26:51.351Z,1011.23
2023-03-16T11:31:32.143Z,1011.35
2023-03-16T11:31:36.959Z,1011.19
2023-03-16T11:32:58.296Z,1011.13
2023-03-16T11:33:37.547Z,1011.14
2023-03-16T11:34:37.828Z,1011.14
2023-03-16T11:35:41.990Z,1011.11
2023-03-16T11:36:38.815Z,1011.14
2023-03-16T11:37:37.606Z,1011.18
2023-03-16T11:38:37.965Z,1011.07
2023-03-16T11:39:37.614Z,1011.12
2023-03-16T11:40:37.878Z,1011.03
2023-03-16T11:41:37.696Z,1011.06
2023-03-16T11:42:57.452Z,1011.00
2023-03-16T11:43:37.665Z,1010.95
2023-03-16T11:44:38.245Z,1010.97
2023-03-16T11:45:37.730Z,1010.99
2023-03-16T11:46:37.596Z,1010.98
2023-03-16T11:47:37.755Z,1010.81
2023-03-16T11:48:37.512Z,1010.90
2023-03-16T11:49:37.257Z,1010.93
2023-03-16T11:50:37.544Z,1010.90
2023-03-16T11:51:37.278Z,1010.88
2023-03-16T11:52:57.558Z,1010.93
2023-03-16T11:53:37.293Z,1010.96
2023-03-16T11:54:37.579Z,1010.92
2023-03-16T11:55:37.330Z,1010.87
2023-03-16T11:56:37.598Z,1010.82
2023-03-16T11:57:37.344Z,1010.89
2023-03-16T11:58:37.636Z,1010.84
2023-03-16T11:59:39.614Z,1010.81
2023-03-16T12:00:37.621Z,1010.79
2023-03-16T12:01:41.080Z,1010.79
2023-03-16T12:02:57.855Z,1010.71
2023-03-16T12:03:38.949Z,1010.72
2023-03-16T12:04:38.672Z,1010.73
2023-03-16T12:05:38.948Z,1010.69
2023-03-16T12:06:37.293Z,1010.66
2023-03-16T12:07:39.027Z,1010.66
2023-03-16T12:08:37.773Z,1010.59
2023-03-16T12:09:37.261Z,1010.63
2023-03-16T12:10:37.525Z,1010.60
2023-03-16T12:11:40.983Z,1010.56
2023-03-16T12:12:58.090Z,1010.57
2023-03-16T12:13:37.441Z,1010.66
2023-03-16T12:14:36.589Z,1010.54
2023-03-16T12:15:36.547Z,1010.62
2023-03-16T12:16:48.704Z,1010.71
2023-03-16T12:17:39.146Z,1010.63
2023-03-16T12:18:37.066Z,1010.68
2023-03-16T12:19:37.759Z,1010.68
2023-03-16T12:20:38.590Z,1010.66
2023-03-16T12:21:36.557Z,1010.70
2023-03-16T12:22:57.972Z,1010.69
2023-03-16T12:23:38.779Z,1010.63